createdAt,value
2023-03-02T00:02:22.334Z,102839.94
2023-03-02T00:04:57.229Z,102839.94
2023-03-02T00:07:30.344Z,102829.06
2023-03-02T00:10:01.471Z,102831.78
2023-03-02T00:12:34.107Z,102795.97
2023-03-02T00:15:04.257Z,102839.09
2023-03-02T00:17:32.731Z,102821.19
2023-03-02T00:20:10.255Z,102808.91
2023-03-02T00:22:39.536Z,102803.84
2023-03-02T00:25:14.548Z,102812.38
2023-03-02T00:27:46.248Z,102786.91
2023-03-02T00:30:21.707Z,102705.13
2023-03-02T00:32:49.849Z,102826.19
2023-03-02T00:35:18.421Z,102826.38
2023-03-02T00:37:47.125Z,102829.06
2023-03-02T00:40:18.781Z,102810.13
2023-03-02T00:42:51.120Z,102822.66
2023-03-02T00:45:20.699Z,102817.13
2023-03-02T00:47:49.078Z,102813.25
2023-03-02T00:50:17.771Z,102797.75
2023-03-02T00:52:45.888Z,102794.69
2023-03-02T00:55:14.122Z,102798.78
2023-03-02T00:57:44.525Z,102813.72
2023-03-02T01:00:13.627Z,102808.31
2023-03-02T01:02:44.565Z,102817.75
2023-03-02T01:05:13.015Z,102808.69
2023-03-02T01:07:41.556Z,102818.03
2023-03-02T01:10:14.341Z,102797.97
2023-03-02T01:12:42.892Z,102811.00
2023-03-02T01:15:16.777Z,102798.31
2023-03-02T01:17:47.114Z,102757.28
2023-03-02T01:20:16.153Z,102791.06
2023-03-02T01:22:44.714Z,102796.00
2023-03-02T01:25:14.549Z,102775.53
2023-03-02T01:27:42.835Z,102815.63
2023-03-02T01:30:12.560Z,102804.34
2023-03-02T01:32:43.351Z,102808.91
2023-03-02T01:35:16.254Z,102820.16
2023-03-02T01:37:44.463Z,102829.16
2023-03-02T01:40:15.026Z,102816.88
2023-03-02T01:42:49.526Z,102810.75
2023-03-02T01:45:48.054Z,102820.50
2023-03-02T01:48:22.182Z,102786.94
2023-03-02T01:50:51.995Z,102764.41
2023-03-02T01:53:22.524Z,102799.81
2023-03-02T01:55:51.797Z,102798.22
2023-03-02T01:58:20.819Z,102775.91
2023-03-02T02:00:49.530Z,102795.94
2023-03-02T02:03:22.308Z,102786.31
2023-03-02T02:06:02.032Z,102798.91
2023-03-02T02:08:30.565Z,102716.16
2023-03-02T02:10:59.704Z,102769.75
2023-03-02T02:13:28.352Z,102783.28
2023-03-02T02:15:57.000Z,102771.31
2023-03-02T02:18:26.063Z,102777.75
2023-03-02T02:20:57.106Z,102773.25
2023-03-02T02:23:34.847Z,102754.22
2023-03-02T02:26:20.543Z,102776.22
2023-03-02T02:28:58.164Z,102746.06
2023-03-02T02:31:31.310Z,102760.69
2023-03-02T02:34:03.968Z,102776.50
2023-03-02T02:36:36.328Z,102729.81
2023-03-02T02:39:08.205Z,102765.00
2023-03-02T02:41:40.995Z,102757.28
2023-03-02T02:44:14.572Z,102729.00
2023-03-02T02:46:45.378Z,102756.19
2023-03-02T02:49:28.183Z,102743.66
2023-03-02T02:51:57.092Z,102747.72
2023-03-02T02:54:26.710Z,102732.03
2023-03-02T02:56:58.740Z,102757.41
2023-03-02T02:59:30.725Z,102739.38
2023-03-02T03:02:00.079Z,102750.56
2023-03-02T03:04:32.014Z,102753.44
2023-03-02T03:07:02.500Z,102755.09
2023-03-02T03:09:31.750Z,102762.75
2023-03-02T03:12:06.007Z,102739.91
2023-03-02T03:14:37.384Z,102753.09
2023-03-02T03:17:12.794Z,102736.66
2023-03-02T03:19:43.257Z,102746.03
2023-03-02T03:22:12.992Z,102750.50
2023-03-02T03:24:43.634Z,102763.03
2023-03-02T03:27:16.725Z,102750.88
2023-03-02T03:29:48.556Z,102756.06
2023-03-02T03:32:17.331Z,102744.78
2023-03-02T03:34:46.712Z,102753.88
2023-03-02T03:37:18.033Z,102750.97
2023-03-02T03:39:46.605Z,102762.91
2023-03-02T03:42:16.729Z,102715.03
2023-03-02T03:44:47.573Z,102756.22
2023-03-02T03:47:15.702Z,102762.84
2023-03-02T03:49:44.049Z,102740.94
2023-03-02T03:52:12.500Z,102753.28
2023-03-02T03:54:40.771Z,102739.28
2023-03-02T03:57:10.745Z,102741.09
2023-03-02T03:59:40.696Z,102743.88
2023-03-02T04:02:09.057Z,102731.69
2023-03-02T04:04:37.634Z,102738.50
2023-03-02T04:07:09.529Z,102734.75
2023-03-02T04:09:39.523Z,102716.69
2023-03-02T04:12:08.820Z,102744.69
2023-03-02T04:14:37.975Z,102689.66
2023-03-02T04:17:08.768Z,102732.78
2023-03-02T04:19:37.491Z,102672.75
2023-03-02T04:22:05.668Z,102715.72
2023-03-02T04:24:34.048Z,102723.03
2023-03-02T04:27:02.311Z,102703.00
2023-03-02T04:29:32.475Z,102722.56
2023-03-02T04:32:01.052Z,102709.84
2023-03-02T04:34:31.074Z,102700.72
2023-03-02T04:36:59.362Z,102734.75
2023-03-02T04:39:28.471Z,102708.69
2023-03-02T04:41:56.991Z,102717.66
2023-03-02T04:44:25.505Z,102716.19
2023-03-02T04:46:53.681Z,102718.22
2023-03-02T04:49:23.070Z,102691.31
2023-03-02T04:51:53.513Z,102709.69
2023-03-02T04:54:25.755Z,102689.19
2023-03-02T04:56:54.954Z,102720.38
2023-03-02T04:59:27.060Z,102703.34
2023-03-02T05:01:56.987Z,102712.31
2023-03-02T05:04:25.739Z,102710.16
2023-03-02T05:06:55.717Z,102684.94
2023-03-02T05:09:27.495Z,102693.16
2023-03-02T05:12:00.687Z,102661.69
2023-03-02T05:14:29.738Z,102713.44
2023-03-02T05:16:58.590Z,102703.50
2023-03-02T05:19:28.297Z,102704.88
2023-03-02T05:21:58.490Z,102684.44
2023-03-02T05:24:27.583Z,102711.50
2023-03-02T05:26:57.231Z,102702.19
2023-03-02T05:29:25.749Z,102718.16
2023-03-02T05:31:54.929Z,102711.63
2023-03-02T05:34:23.448Z,102700.88
2023-03-02T05:36:51.634Z,102703.47
2023-03-02T05:39:21.329Z,102698.25
2023-03-02T05:41:50.102Z,102687.84
2023-03-02T05:44:18.410Z,102677.31
2023-03-02T05:46:47.837Z,102711.31
2023-03-02T05:49:16.366Z,102710.03
2023-03-02T05:51:44.547Z,102705.63
2023-03-02T05:54:12.801Z,102710.59
2023-03-02T05:56:42.488Z,102719.44
2023-03-02T05:59:10.677Z,102716.34
2023-03-02T06:01:38.920Z,102708.19
2023-03-02T06:04:07.759Z,102716.03
2023-03-02T06:06:36.729Z,102662.78
2023-03-02T06:09:05.494Z,102717.66
2023-03-02T06:11:33.992Z,102690.97
2023-03-02T06:14:04.461Z,102713.91
2023-03-02T06:16:33.987Z,102684.09
2023-03-02T06:19:02.676Z,102705.94
2023-03-02T06:21:30.749Z,102705.09
2023-03-02T06:23:59.600Z,102708.84
2023-03-02T06:26:28.096Z,102710.47
2023-03-02T06:28:56.684Z,102714.72
2023-03-02T06:31:26.714Z,102714.22
2023-03-02T06:33:54.786Z,102712.09
2023-03-02T06:36:23.103Z,102703.16
2023-03-02T06:38:51.677Z,102711.94
2023-03-02T06:41:20.423Z,102699.22
2023-03-02T06:43:49.239Z,102702.47
2023-03-02T06:46:17.824Z,102687.00
2023-03-02T06:48:47.641Z,102715.84
2023-03-02T06:51:15.928Z,102719.81
2023-03-02T06:53:44.179Z,102706.91
2023-03-02T06:56:12.692Z,102724.41
2023-03-02T06:58:41.400Z,102714.78
2023-03-02T07:01:10.186Z,102724.22
2023-03-02T07:03:38.748Z,102711.88
2023-03-02T07:06:09.109Z,102708.72
2023-03-02T07:08:37.598Z,102690.00
2023-03-02T07:11:09.245Z,102728.88
2023-03-02T07:13:38.035Z,102705.75
2023-03-02T07:16:10.670Z,102716.69
2023-03-02T07:18:38.846Z,102713.59
2023-03-02T07:21:08.876Z,102719.63
2023-03-02T07:23:37.203Z,102697.91
2023-03-02T07:26:08.602Z,102707.88
2023-03-02T07:28:39.584Z,102706.75
2023-03-02T07:31:08.828Z,102700.53
2023-03-02T07:33:37.501Z,102693.22
2023-03-02T07:36:06.912Z,102698.75
2023-03-02T07:38:37.645Z,102688.78
2023-03-02T07:41:08.741Z,102684.38
2023-03-02T07:43:37.490Z,102681.50
2023-03-02T07:46:06.540Z,102670.78
2023-03-02T07:48:35.588Z,102677.97
2023-03-02T07:51:07.030Z,102672.91
2023-03-02T07:53:36.858Z,102671.56
2023-03-02T07:56:08.670Z,102660.09
2023-03-02T07:58:37.091Z,102668.59
2023-03-02T08:01:06.128Z,102628.19
2023-03-02T08:03:34.901Z,102655.63
2023-03-02T08:06:06.578Z,102660.56
2023-03-02T08:08:35.270Z,102672.44
2023-03-02T08:11:09.347Z,102616.09
2023-03-02T08:13:37.858Z,102657.22
2023-03-02T08:16:08.126Z,102653.75
2023-03-02T08:18:37.466Z,102643.31
2023-03-02T08:21:06.794Z,102659.84
2023-03-02T08:23:35.210Z,102640.47
2023-03-02T08:26:03.609Z,102654.47
2023-03-02T08:28:33.268Z,102641.97
2023-03-02T08:31:02.851Z,102654.47
2023-03-02T08:33:31.460Z,102642.25
2023-03-02T08:36:02.199Z,102650.75
2023-03-02T08:38:30.903Z,102643.03
2023-03-02T08:40:59.269Z,102635.25
2023-03-02T08:43:28.207Z,102645.97
2023-03-02T08:45:58.758Z,102643.00
2023-03-02T08:48:28.636Z,102637.22
2023-03-02T08:50:59.250Z,102636.53
2023-03-02T08:53:29.182Z,102639.00
2023-03-02T08:55:58.236Z,102639.66
2023-03-02T08:58:28.423Z,102632.25
2023-03-02T09:00:58.866Z,102611.22
2023-03-02T09:03:27.298Z,102639.78
2023-03-02T09:05:55.704Z,102624.38
2023-03-02T09:08:24.139Z,102620.09
2023-03-02T09:10:52.409Z,102638.25
2023-03-02T09:13:20.674Z,102585.31
2023-03-02T09:15:51.590Z,102624.25
2023-03-02T09:18:21.198Z,102602.38
2023-03-02T09:20:51.455Z,102614.78
2023-03-02T09:23:20.271Z,102616.94
2023-03-02T09:25:49.280Z,102605.63
2023-03-02T09:28:18.448Z,102614.38
2023-03-02T09:30:50.683Z,102611.25
2023-03-02T09:33:20.869Z,102588.34
2023-03-02T09:35:51.077Z,102614.34
2023-03-02T09:38:20.708Z,102594.34
2023-03-02T09:41:10.541Z,102585.28
2023-03-02T09:43:50.840Z,102550.41
2023-03-02T09:46:24.404Z,102599.00
2023-03-02T09:49:22.564Z,102589.81
2023-03-02T09:52:07.256Z,102602.44
2023-03-02T09:54:38.143Z,102600.34
2023-03-02T09:57:21.735Z,102581.03
2023-03-02T09:59:55.877Z,102575.16
2023-03-02T10:02:28.673Z,102568.84
2023-03-02T10:05:02.387Z,102547.25
2023-03-02T10:07:32.247Z,102545.97
2023-03-02T10:10:06.052Z,102569.34
2023-03-02T10:12:53.173Z,102564.31
2023-03-02T10:15:27.438Z,102537.56
2023-03-02T10:18:04.146Z,102530.25
2023-03-02T10:20:38.147Z,102557.03
2023-03-02T10:23:19.929Z,102568.56
2023-03-02T10:25:52.355Z,102557.34
2023-03-02T10:28:22.564Z,102558.56
2023-03-02T10:30:55.703Z,102555.91
2023-03-02T10:33:24.687Z,102554.34
2023-03-02T10:35:55.211Z,102546.31
2023-03-02T10:38:27.567Z,102549.66
2023-03-02T10:41:00.725Z,102544.25
2023-03-02T10:43:35.014Z,102540.97
2023-03-02T10:46:04.939Z,102555.38
2023-03-02T10:48:40.922Z,102548.19
2023-03-02T10:51:23.726Z,102562.97
2023-03-02T10:53:52.466Z,102513.66
2023-03-02T10:56:22.800Z,102546.69
2023-03-02T10:58:50.898Z,102544.28
2023-03-02T11:01:24.988Z,102545.91
2023-03-02T11:04:08.637Z,102533.41
2023-03-02T11:06:42.412Z,102503.41
2023-03-02T11:12:05.090Z,102533.50
2023-03-02T11:14:37.873Z,102514.25
2023-03-02T11:17:38.477Z,102528.81
2023-03-02T11:20:31.646Z,102512.91
2023-03-02T11:23:20.388Z,102540.81
2023-03-02T11:26:04.127Z,102543.78
2023-03-02T11:28:56.242Z,102542.66
2023-03-02T11:31:44.940Z,102538.88
2023-03-02T11:34:41.824Z,102531.78
2023-03-02T11:37:25.741Z,102503.44
2023-03-02T11:40:07.515Z,102507.78
2023-03-02T11:42:37.951Z,102505.97
2023-03-02T11:45:21.798Z,102500.00
2023-03-02T11:48:05.125Z,102506.81
2023-03-02T11:50:41.323Z,102388.03
2023-03-02T11:53:20.876Z,102391.78
2023-03-02T11:55:51.998Z,102502.31
2023-03-02T11:58:22.665Z,102476.97
2023-03-02T12:00:54.740Z,102518.13
2023-03-02T12:03:40.105Z,102488.00
2023-03-02T12:06:26.024Z,102489.38
2023-03-02T12:08:57.367Z,102477.97
2023-03-02T12:11:38.395Z,102500.75
2023-03-02T12:14:26.995Z,102465.03
2023-03-02T12:17:22.421Z,102501.81
2023-03-02T12:19:54.585Z,102499.66
2023-03-02T12:22:31.057Z,102509.97
2023-03-02T12:25:06.519Z,102491.84
2023-03-02T12:27:42.336Z,102510.19
2023-03-02T12:30:24.822Z,102492.28
2023-03-02T12:33:20.082Z,102502.91
2023-03-02T12:36:13.413Z,102502.75
2023-03-02T12:38:56.798Z,102494.34
2023-03-02T12:41:53.043Z,102492.59
2023-03-02T12:44:39.953Z,102473.69
2023-03-02T12:47:15.980Z,102495.63
2023-03-02T12:50:01.416Z,102466.06
2023-03-02T12:52:32.363Z,102495.75
2023-03-02T12:55:03.615Z,102493.63
2023-03-02T12:57:33.114Z,102500.81
2023-03-02T13:00:06.141Z,102481.47
2023-03-02T13:02:38.904Z,102461.66
2023-03-02T13:05:09.258Z,102485.31
2023-03-02T13:07:41.925Z,102484.81
2023-03-02T13:10:29.250Z,102495.84
2023-03-02T13:13:04.120Z,102489.44
2023-03-02T13:15:39.131Z,102491.34
2023-03-02T13:18:07.588Z,102488.78
2023-03-02T13:20:41.280Z,102489.84
2023-03-02T13:23:14.520Z,102454.38
2023-03-02T13:26:03.252Z,102484.72
2023-03-02T13:28:40.869Z,102481.47
2023-03-02T13:31:26.969Z,102482.97
2023-03-02T13:33:57.039Z,102472.44
2023-03-02T13:36:29.050Z,102480.75
2023-03-02T13:39:00.305Z,102461.09
2023-03-02T13:41:36.928Z,102462.22
2023-03-02T13:44:19.919Z,102370.97
2023-03-02T13:46:51.789Z,102429.91
2023-03-02T13:49:30.770Z,102426.88
2023-03-02T13:52:07.739Z,102412.28
2023-03-02T13:54:41.290Z,102412.91
2023-03-02T13:57:26.496Z,102389.06
2023-03-02T13:59:55.043Z,102401.28
2023-03-02T14:02:28.545Z,102402.09
2023-03-02T14:04:58.330Z,102402.38
2023-03-02T14:07:26.882Z,102403.94
2023-03-02T14:09:58.431Z,102413.31
2023-03-02T14:12:29.325Z,102424.81
2023-03-02T14:15:04.754Z,102416.25
2023-03-02T14:17:34.736Z,102408.66
2023-03-02T14:20:04.835Z,102405.31
2023-03-02T14:22:39.069Z,102400.22
2023-03-02T14:25:11.056Z,102414.22
2023-03-02T14:27:49.486Z,102408.66
2023-03-02T14:30:20.340Z,102382.41
2023-03-02T14:32:51.231Z,102382.75
2023-03-02T14:35:21.965Z,102371.34
2023-03-02T14:37:56.897Z,102371.47
2023-03-02T14:40:28.897Z,102370.47
2023-03-02T14:43:01.075Z,102350.84
2023-03-02T14:45:32.086Z,102352.75
2023-03-02T14:48:02.183Z,102347.59
2023-03-02T14:50:30.625Z,102344.88
2023-03-02T14:52:59.636Z,102338.00
2023-03-02T14:55:32.595Z,102287.31
2023-03-02T14:58:05.391Z,102275.59
2023-03-02T15:00:37.202Z,102256.63
2023-03-02T15:03:08.994Z,102233.88
2023-03-02T15:05:38.565Z,102335.56
2023-03-02T15:08:08.116Z,102346.94
2023-03-02T15:10:38.152Z,102290.03
2023-03-02T15:13:09.715Z,102297.09
2023-03-02T15:15:39.534Z,102318.34
2023-03-02T15:18:12.272Z,102296.59
2023-03-02T15:20:41.457Z,102314.38
2023-03-02T15:23:15.220Z,102253.31
2023-03-02T15:25:47.214Z,102296.41
2023-03-02T15:28:18.184Z,102278.44
2023-03-02T15:30:47.901Z,102292.66
2023-03-02T15:33:18.111Z,102286.47
2023-03-02T15:35:56.744Z,102234.41
2023-03-02T15:38:31.110Z,102235.88
2023-03-02T15:41:07.567Z,102252.94
2023-03-02T15:43:38.344Z,102221.75
2023-03-02T15:46:12.499Z,102245.53
2023-03-02T15:48:52.497Z,102267.75
2023-03-02T15:51:22.261Z,102256.44
2023-03-02T15:53:51.189Z,102265.81
2023-03-02T15:56:19.870Z,102253.66
2023-03-02T15:58:54.876Z,102260.34
2023-03-02T16:01:24.076Z,102204.59
2023-03-02T16:03:54.302Z,102200.19
2023-03-02T16:06:24.479Z,102249.63
2023-03-02T16:08:53.135Z,102254.88
2023-03-02T16:11:23.411Z,102245.81
2023-03-02T16:13:54.929Z,102237.03
2023-03-02T16:16:30.153Z,102225.94
2023-03-02T16:19:04.122Z,102225.19
2023-03-02T16:21:32.538Z,102228.16
2023-03-02T16:24:05.108Z,102213.09
2023-03-02T16:26:38.104Z,102205.03
2023-03-02T16:29:16.944Z,102169.91
2023-03-02T16:31:47.793Z,102190.88
2023-03-02T16:34:18.605Z,102174.13
2023-03-02T16:36:50.156Z,102196.81
2023-03-02T16:39:24.911Z,102171.78
2023-03-02T16:41:54.732Z,102171.38
2023-03-02T16:44:26.224Z,102173.03
2023-03-02T16:47:01.227Z,102154.56
2023-03-02T16:49:38.160Z,102154.66
2023-03-02T16:52:09.540Z,102133.66
2023-03-02T16:54:37.679Z,102042.91
2023-03-02T16:57:12.340Z,102151.22
2023-03-02T16:59:41.796Z,102104.19
2023-03-02T17:02:14.764Z,102148.88
2023-03-02T17:05:01.844Z,102158.41
2023-03-02T17:07:33.350Z,102082.13
2023-03-02T17:10:21.851Z,102165.69
2023-03-02T17:12:59.139Z,102178.72
2023-03-02T17:15:29.033Z,102156.59
2023-03-02T17:18:01.289Z,102136.38
2023-03-02T17:20:30.918Z,102160.91
2023-03-02T17:23:09.260Z,102148.47
2023-03-02T17:25:38.147Z,102122.19
2023-03-02T17:28:07.501Z,102143.56
2023-03-02T17:30:36.165Z,102118.84
2023-03-02T17:33:08.095Z,102008.22
2023-03-02T17:35:39.973Z,102107.25
2023-03-02T17:38:09.971Z,102138.81
2023-03-02T17:40:38.522Z,102135.00
2023-03-02T17:43:09.749Z,102138.53
2023-03-02T17:45:38.642Z,102143.97
2023-03-02T17:48:19.123Z,102065.75
2023-03-02T17:51:01.027Z,102063.97
2023-03-02T17:53:30.938Z,102141.94
2023-03-02T17:56:03.822Z,102152.41
2023-03-02T17:58:44.705Z,102162.25
2023-03-02T18:01:27.261Z,102083.31
2023-03-02T18:03:58.483Z,102065.63
2023-03-02T18:07:01.697Z,102147.97
2023-03-02T18:09:47.670Z,101987.50
2023-03-02T18:12:46.451Z,102000.53
2023-03-02T18:15:41.578Z,102081.13
2023-03-02T18:18:16.063Z,102001.97
2023-03-02T18:20:58.556Z,102201.75
2023-03-02T18:23:31.375Z,102206.91
2023-03-02T18:26:03.125Z,102142.91
2023-03-02T18:28:33.114Z,102197.94
2023-03-02T18:31:11.191Z,102190.53
2023-03-02T18:33:40.061Z,102196.38
2023-03-02T18:36:09.059Z,102202.69
2023-03-02T18:38:50.457Z,102199.19
2023-03-02T18:41:20.838Z,102156.94
2023-03-02T18:43:49.232Z,102178.19
2023-03-02T18:46:23.935Z,102165.91
2023-03-02T18:48:54.057Z,102182.28
2023-03-02T18:51:26.924Z,102184.22
2023-03-02T18:53:57.307Z,102174.91
2023-03-02T18:56:27.832Z,102187.06
2023-03-02T18:58:56.714Z,102179.88
2023-03-02T19:01:36.168Z,102172.34
2023-03-02T19:04:09.326Z,102028.00
2023-03-02T19:06:42.834Z,102141.38
2023-03-02T19:09:16.425Z,102164.66
2023-03-02T19:11:46.457Z,102195.75
2023-03-02T19:14:15.735Z,102154.31
2023-03-02T19:16:45.698Z,102179.94
2023-03-02T19:19:17.137Z,102164.16
2023-03-02T19:21:48.441Z,102140.84
2023-03-02T19:24:19.440Z,102139.78
2023-03-02T19:26:47.596Z,102129.81
2023-03-02T19:29:16.788Z,102161.66
2023-03-02T19:31:47.948Z,102160.03
2023-03-02T19:34:19.122Z,102162.09
2023-03-02T19:36:49.073Z,102159.31
2023-03-02T19:39:28.172Z,102132.53
2023-03-02T19:42:00.156Z,102150.59
2023-03-02T19:44:28.435Z,102133.09
2023-03-02T19:46:57.222Z,102151.63
2023-03-02T19:49:25.984Z,102152.34
2023-03-02T19:51:59.235Z,102153.69
2023-03-02T19:54:34.950Z,102150.31
2023-03-02T19:57:08.386Z,102131.75
2023-03-02T19:59:41.162Z,102123.06
2023-03-02T20:02:15.623Z,102154.75
2023-03-02T20:04:45.815Z,102150.03
2023-03-02T20:07:14.194Z,102109.06
2023-03-02T20:09:48.926Z,102146.78
2023-03-02T20:12:17.444Z,102148.53
2023-03-02T20:14:49.342Z,102153.09
2023-03-02T20:17:19.661Z,102148.91
2023-03-02T20:19:49.412Z,102143.28
2023-03-02T20:22:22.354Z,102138.16
2023-03-02T20:24:55.121Z,102135.34
2023-03-02T20:27:24.288Z,102131.34
2023-03-02T20:29:52.816Z,102155.06
2023-03-02T20:32:21.809Z,102152.72
2023-03-02T20:34:50.485Z,102143.72
2023-03-02T20:37:19.157Z,102148.84
2023-03-02T20:39:48.034Z,102150.53
2023-03-02T20:42:18.170Z,102124.06
2023-03-02T20:44:53.477Z,102096.66
2023-03-02T20:47:21.957Z,102122.50
2023-03-02T20:49:50.461Z,102109.31
2023-03-02T20:52:19.818Z,102122.78
2023-03-02T20:54:48.688Z,102017.03
2023-03-02T20:57:20.342Z,102115.75
2023-03-02T20:59:48.979Z,102119.09
2023-03-02T21:02:20.404Z,102132.22
2023-03-02T21:04:49.368Z,102145.28
2023-03-02T21:07:20.577Z,102149.44
2023-03-02T21:09:51.290Z,102150.31
2023-03-02T21:12:23.361Z,102140.81
2023-03-02T21:14:52.152Z,102131.16
2023-03-02T21:17:21.089Z,102135.06
2023-03-02T21:19:49.218Z,102125.94
2023-03-02T21:22:20.307Z,102134.41
2023-03-02T21:24:48.564Z,102125.63
2023-03-02T21:27:16.653Z,102134.22
2023-03-02T21:29:46.343Z,102148.06
2023-03-02T21:32:15.084Z,102148.75
2023-03-02T21:34:45.086Z,102137.53
2023-03-02T21:37:14.018Z,102135.41
2023-03-02T21:39:42.601Z,102136.97
2023-03-02T21:42:10.765Z,102130.63
2023-03-02T21:44:41.527Z,102120.75
2023-03-02T21:47:14.845Z,102114.41
2023-03-02T21:49:43.242Z,102112.63
2023-03-02T21:52:11.339Z,102110.66
2023-03-02T21:54:39.766Z,102122.06
2023-03-02T21:57:09.849Z,102123.47
2023-03-02T21:59:38.485Z,102117.69
2023-03-02T22:02:06.716Z,102122.69
2023-03-02T22:04:36.800Z,102134.75
2023-03-02T22:07:08.556Z,102126.75
2023-03-02T22:09:37.015Z,102124.31
2023-03-02T22:12:13.105Z,102112.00
2023-03-02T22:14:41.503Z,102110.25
2023-03-02T22:17:18.527Z,102108.31
2023-03-02T22:19:49.202Z,102091.19
2023-03-02T22:22:19.336Z,102087.50
2023-03-02T22:24:50.076Z,102086.72
2023-03-02T22:27:27.719Z,102090.16
2023-03-02T22:30:01.010Z,102083.69
2023-03-02T22:32:31.261Z,102105.94
2023-03-02T22:35:04.209Z,102109.16
2023-03-02T22:37:36.205Z,102093.13
2023-03-02T22:40:18.574Z,102096.22
2023-03-02T22:42:46.824Z,102108.56
2023-03-02T22:45:17.638Z,102097.88
2023-03-02T22:47:49.266Z,102089.88
2023-03-02T22:50:24.079Z,102086.16
2023-03-02T22:52:53.312Z,102112.16
2023-03-02T22:55:35.923Z,102083.06
2023-03-02T22:58:27.157Z,102096.22
2023-03-02T23:00:56.358Z,102102.75
2023-03-02T23:03:28.069Z,102102.34
2023-03-02T23:06:01.010Z,102110.09
2023-03-02T23:08:30.952Z,102106.06
2023-03-02T23:11:00.178Z,102109.72
2023-03-02T23:13:41.119Z,102096.38
2023-03-02T23:16:16.450Z,102084.34
2023-03-02T23:18:44.985Z,102100.34
2023-03-02T23:21:23.522Z,102079.59
2023-03-02T23:23:52.137Z,102108.41
2023-03-02T23:26:21.226Z,102119.81
2023-03-02T23:28:51.734Z,102123.47
2023-03-02T23:31:21.453Z,102123.66
2023-03-02T23:33:49.961Z,102123.34
2023-03-02T23:36:20.999Z,102127.03
2023-03-02T23:38:51.505Z,102125.97
2023-03-02T23:41:20.032Z,102130.03
2023-03-02T23:43:48.775Z,102130.38
2023-03-02T23:46:17.445Z,102129.66
2023-03-02T23:48:45.875Z,102133.72
2023-03-02T23:51:13.970Z,102127.50
2023-03-02T23:53:42.578Z,102122.69
2023-03-02T23:56:12.868Z,102124.03
2023-03-02T23:58:42.015Z,102121.81
